Time;durP1;ratioP1;P1;durP2;ratioP2;P2;SDS_P1;SDS_P2;PMS_P1;PMS_P2;Temp;Humidity;BMP_temperature;BMP_pressure;BME280_temperature;BME280_humidity;BME280_pressure;Samples;Min_cycle;Max_cycle;Signal;HPM_P1;HPM_P2
2021/07/05 00:01:48;;;;;;;9.73;8.38;;;21.50;68.10;;;;;;4972605;28;20019;-65
2021/07/05 00:04:14;;;;;;;11.07;8.45;;;21.30;68.60;;;;;;4972617;28;20077;-66
2021/07/05 00:06:40;;;;;;;9.77;8.60;;;21.20;68.70;;;;;;4972599;28;20086;-64
2021/07/05 00:09:06;;;;;;;9.02;8.13;;;21.10;69.00;;;;;;4972071;28;20105;-64
2021/07/05 00:11:33;;;;;;;8.32;7.53;;;21.00;69.50;;;;;;4971192;28;20054;-65
2021/07/05 00:13:59;;;;;;;8.57;7.45;;;21.10;69.00;;;;;;4973543;28;20049;-65
2021/07/05 00:16:25;;;;;;;9.38;8.35;;;21.20;69.10;;;;;;4975839;28;20023;-65
2021/07/05 00:18:50;;;;;;;9.40;7.75;;;21.20;69.00;;;;;;4976304;28;20086;-65
2021/07/05 00:23:53;;;;;;;9.45;7.95;;;21.20;68.70;;;;;;4974679;28;20078;-66
2021/07/05 00:26:19;;;;;;;10.27;8.02;;;21.20;69.00;;;;;;4975354;28;20062;-66
2021/07/05 00:28:44;;;;;;;9.73;8.25;;;21.20;69.20;;;;;;4976066;28;20106;-66
2021/07/05 00:31:10;;;;;;;9.02;8.02;;;21.10;69.30;;;;;;4976060;28;20473;-66
2021/07/05 00:33:36;;;;;;;9.27;8.30;;;21.10;69.10;;;;;;4967789;28;20031;-66
2021/07/05 00:36:02;;;;;;;9.65;7.97;;;21.10;69.40;;;;;;4975596;28;20102;-66
2021/07/05 00:38:28;;;;;;;13.45;8.15;;;21.00;69.30;;;;;;4975853;28;20103;-66
2021/07/05 00:40:53;;;;;;;11.13;8.20;;;21.00;69.30;;;;;;4976297;28;20030;-66
2021/07/05 00:43:19;;;;;;;11.98;8.57;;;21.00;69.00;;;;;;4975857;28;20034;-66
2021/07/05 00:45:44;;;;;;;8.75;7.85;;;20.90;69.00;;;;;;4958046;28;20023;-66
2021/07/05 00:48:10;;;;;;;9.30;8.35;;;20.90;69.30;;;;;;4974388;28;20121;-66
2021/07/05 00:50:36;;;;;;;8.45;7.65;;;20.90;68.80;;;;;;4975819;28;20501;-67
2021/07/05 00:53:03;;;;;;;10.07;7.50;;;20.90;68.70;;;;;;4958357;28;20058;-66
2021/07/05 00:55:31;;;;;;;10.13;8.10;;;20.90;68.70;;;;;;4975661;28;20429;-66
2021/07/05 00:57:57;;;;;;;9.02;7.97;;;20.90;68.40;;;;;;4975538;28;20509;-66
2021/07/05 01:00:24;;;;;;;10.18;7.40;;;20.80;68.20;;;;;;4975611;28;20105;-67
2021/07/05 01:02:51;;;;;;;9.65;7.88;;;20.80;68.00;;;;;;4975458;28;20484;-66
2021/07/05 01:05:17;;;;;;;8.63;7.25;;;20.80;68.20;;;;;;4957878;28;20031;-67
2021/07/05 01:07:43;;;;;;;9.57;7.93;;;20.80;67.90;;;;;;4975241;28;20428;-67
2021/07/05 01:10:10;;;;;;;8.30;7.43;;;20.70;68.20;;;;;;4975474;28;20481;-66
2021/07/05 01:12:38;;;;;;;10.15;7.35;;;20.60;68.40;;;;;;4975248;28;20030;-66
2021/07/05 01:15:06;;;;;;;8.95;7.93;;;20.60;68.70;;;;;;4974950;28;20026;-66
2021/07/05 01:17:31;;;;;;;8.25;6.95;;;20.50;68.70;;;;;;4957799;28;20059;-66
2021/07/05 01:19:57;;;;;;;10.13;7.78;;;20.60;69.00;;;;;;4973822;28;20136;-66
2021/07/05 01:22:22;;;;;;;8.35;7.40;;;20.60;69.20;;;;;;4957679;28;20041;-66
2021/07/05 01:24:48;;;;;;;8.02;7.22;;;20.60;69.20;;;;;;4973597;28;20473;-66
2021/07/05 01:27:14;;;;;;;10.00;7.65;;;20.60;69.50;;;;;;4957805;28;20037;-65
2021/07/05 01:29:40;;;;;;;9.02;7.90;;;20.60;69.50;;;;;;4975009;28;20030;-66
2021/07/05 01:32:08;;;;;;;12.02;7.82;;;20.60;69.20;;;;;;4974957;28;20169;-66
2021/07/05 01:34:35;;;;;;;11.65;7.45;;;20.70;69.50;;;;;;4974642;28;20037;-66
2021/07/05 01:37:02;;;;;;;8.65;6.57;;;20.70;69.50;;;;;;4974699;28;20023;-66
2021/07/05 01:39:28;;;;;;;8.18;7.18;;;20.70;69.10;;;;;;4974868;28;20026;-66
2021/07/05 01:41:53;;;;;;;8.27;7.38;;;20.70;69.30;;;;;;4957322;28;20048;-66
2021/07/05 01:44:19;;;;;;;10.73;7.32;;;20.80;69.40;;;;;;4974570;28;20030;-66
2021/07/05 01:46:45;;;;;;;8.52;6.90;;;20.60;69.70;;;;;;4974698;28;20485;-66
2021/07/05 01:49:11;;;;;;;10.35;7.70;;;20.70;69.50;;;;;;4975014;28;20085;-67
2021/07/05 01:51:37;;;;;;;9.23;7.13;;;20.70;69.30;;;;;;4974436;28;20489;-66
2021/07/05 01:54:04;;;;;;;7.07;6.38;;;20.60;69.60;;;;;;4974491;28;20102;-66
2021/07/05 01:56:30;;;;;;;8.48;6.47;;;20.50;69.80;;;;;;4974382;28;20491;-66
2021/07/05 01:58:56;;;;;;;8.93;6.82;;;20.60;69.60;;;;;;4974495;28;20473;-66
2021/07/05 02:01:21;;;;;;;9.48;6.57;;;20.50;69.60;;;;;;4974329;28;20025;-65
2021/07/05 02:03:47;;;;;;;8.80;7.28;;;20.60;69.40;;;;;;4974412;28;20047;-66
2021/07/05 02:06:12;;;;;;;8.07;7.25;;;20.50;70.00;;;;;;4956681;28;20062;-66
2021/07/05 02:08:38;;;;;;;9.07;6.82;;;20.50;70.00;;;;;;4974386;28;20023;-66
2021/07/05 02:11:05;;;;;;;8.35;6.38;;;20.40;70.40;;;;;;4957230;28;20026;-66
2021/07/05 02:13:32;;;;;;;8.77;6.65;;;20.40;70.80;;;;;;4974124;28;20027;-66
2021/07/05 02:16:00;;;;;;;11.23;6.60;;;20.50;70.40;;;;;;4974026;28;20037;-66
2021/07/05 02:18:27;;;;;;;11.57;5.88;;;20.50;70.40;;;;;;4974128;28;20031;-66
2021/07/05 02:20:54;;;;;;;8.45;6.53;;;20.50;70.30;;;;;;4956568;28;20469;-66
2021/07/05 02:23:20;;;;;;;8.40;6.10;;;20.60;69.90;;;;;;4973758;28;20129;-66
2021/07/05 02:25:47;;;;;;;8.43;6.65;;;20.70;69.80;;;;;;4956425;28;20031;-66
2021/07/05 02:28:18;;;;;;;7.22;5.93;;;20.60;69.80;;;;;;4973896;28;20413;-66
2021/07/05 02:30:49;;;;;;;7.93;6.13;;;20.70;69.50;;;;;;4973961;28;20054;-65
2021/07/05 02:33:17;;;;;;;8.13;6.57;;;20.50;69.90;;;;;;4973564;28;20089;-65
2021/07/05 02:35:42;;;;;;;8.98;6.43;;;20.60;69.60;;;;;;4957521;28;20027;-65
2021/07/05 02:38:10;;;;;;;7.20;6.00;;;20.60;69.90;;;;;;4953234;29;20027;-66
2021/07/05 02:40:46;;;;;;;8.10;6.00;;;20.50;70.00;;;;;;4937239;29;20393;-66
2021/07/05 02:43:13;;;;;;;7.75;5.90;;;20.50;70.10;;;;;;4954292;29;20055;-65
2021/07/05 02:45:41;;;;;;;7.75;6.32;;;20.50;70.40;;;;;;4954512;29;20063;-65
2021/07/05 02:48:10;;;;;;;7.05;6.35;;;20.40;70.60;;;;;;4944448;28;20023;-65
2021/07/05 02:50:38;;;;;;;9.50;6.13;;;20.40;71.10;;;;;;4973542;28;20031;-65
2021/07/05 02:53:08;;;;;;;11.02;6.55;;;20.40;71.00;;;;;;4956121;28;20034;-66
2021/07/05 02:55:34;;;;;;;10.35;6.30;;;20.40;70.70;;;;;;4956025;28;20113;-66
2021/07/05 02:57:59;;;;;;;9.63;6.03;;;20.30;70.90;;;;;;4974085;28;20026;-66
2021/07/05 03:00:37;;;;;;;10.18;6.05;;;20.30;71.00;;;;;;4973044;28;20448;-65
2021/07/05 03:03:03;;;;;;;8.13;6.13;;;20.30;71.00;;;;;;4955736;28;20018;-65
2021/07/05 03:05:30;;;;;;;6.47;5.78;;;20.30;71.10;;;;;;4973032;28;20030;-65
2021/07/05 03:07:56;;;;;;;6.03;5.38;;;20.30;71.00;;;;;;4955960;28;20018;-65
2021/07/05 03:10:25;;;;;;;7.93;5.43;;;20.30;70.70;;;;;;4973475;28;20053;-65
2021/07/05 03:12:51;;;;;;;7.88;5.70;;;20.30;70.80;;;;;;4972974;28;20377;-65
2021/07/05 03:15:17;;;;;;;12.38;10.55;;;20.50;70.80;;;;;;4972952;28;20049;-65
2021/07/05 03:17:44;;;;;;;287.23;243.18;;;20.40;70.70;;;;;;4955802;28;20484;-65
2021/07/05 03:20:13;;;;;;;23.05;15.32;;;20.40;70.30;;;;;;4955756;28;20077;-65
2021/07/05 03:22:39;;;;;;;18.92;13.75;;;20.50;70.20;;;;;;4973056;28;20066;-65
2021/07/05 03:25:07;;;;;;;16.17;9.23;;;20.50;70.30;;;;;;4955571;28;20081;-66
2021/07/05 03:27:33;;;;;;;15.63;10.32;;;20.50;70.10;;;;;;4972846;28;20034;-65
2021/07/05 03:29:59;;;;;;;12.93;7.57;;;20.60;69.70;;;;;;4972988;28;20549;-65
2021/07/05 03:32:25;;;;;;;6.15;5.07;;;20.60;69.50;;;;;;4972979;28;20109;-66
2021/07/05 03:34:50;;;;;;;6.72;5.60;;;20.60;69.50;;;;;;4972776;28;20027;-66
2021/07/05 03:37:16;;;;;;;7.90;4.90;;;20.60;69.50;;;;;;4953626;29;20027;-66
2021/07/05 03:39:42;;;;;;;9.75;7.63;;;20.50;69.50;;;;;;4953552;29;20020;-66
2021/07/05 03:42:08;;;;;;;5.18;4.63;;;20.50;69.80;;;;;;4936094;29;20023;-66
2021/07/05 03:44:33;;;;;;;7.22;5.80;;;20.60;69.20;;;;;;4953410;29;20027;-66
2021/07/05 03:46:59;;;;;;;8.07;5.00;;;20.70;69.10;;;;;;4953476;28;20074;-66
2021/07/05 03:49:24;;;;;;;7.35;5.15;;;20.80;69.00;;;;;;4974409;28;20018;-66
2021/07/05 03:51:50;;;;;;;8.48;5.05;;;20.80;68.40;;;;;;4959454;28;20023;-66
2021/07/05 03:54:16;;;;;;;6.97;5.40;;;20.90;68.60;;;;;;4976654;28;20027;-66
2021/07/05 03:56:43;;;;;;;6.97;5.20;;;21.00;68.00;;;;;;4976402;28;20097;-66
2021/07/05 03:59:08;;;;;;;6.50;4.88;;;21.20;67.40;;;;;;4972555;28;20055;-66
2021/07/05 04:01:34;;;;;;;9.18;4.85;;;21.40;66.80;;;;;;4974652;28;20097;-65
2021/07/05 04:04:00;;;;;;;9.50;5.05;;;21.40;66.90;;;;;;4976410;28;20027;-65
2021/07/05 04:06:26;;;;;;;4.78;4.28;;;21.30;66.70;;;;;;4958882;28;20019;-65
2021/07/05 04:08:53;;;;;;;7.13;4.90;;;21.30;67.10;;;;;;4959099;28;20030;-65
2021/07/05 04:11:18;;;;;;;6.53;4.40;;;21.30;66.70;;;;;;4965681;28;20061;-65
2021/07/05 04:13:44;;;;;;;6.20;4.20;;;21.30;66.70;;;;;;4957007;29;20058;-65
2021/07/05 04:16:09;;;;;;;5.88;4.40;;;21.30;66.90;;;;;;4956775;29;20030;-65
2021/07/05 04:18:35;;;;;;;4.72;4.22;;;21.30;67.40;;;;;;4955397;29;20042;-65
2021/07/05 04:21:01;;;;;;;13.10;7.32;;;21.30;66.40;;;;;;4957005;29;20069;-65
2021/07/05 04:23:26;;;;;;;5.65;4.15;;;21.20;66.60;;;;;;4955492;29;20532;-65
2021/07/05 04:25:53;;;;;;;5.38;4.00;;;21.20;66.90;;;;;;4956535;29;20393;-65
2021/07/05 04:28:19;;;;;;;4.53;4.13;;;21.10;66.80;;;;;;4955327;29;20027;-66
2021/07/05 04:30:44;;;;;;;4.93;3.92;;;21.00;67.30;;;;;;4956775;29;20023;-65
2021/07/05 04:33:10;;;;;;;6.55;4.13;;;21.10;67.40;;;;;;4963197;28;20027;-65
2021/07/05 04:35:36;;;;;;;5.13;4.10;;;21.10;67.50;;;;;;4974414;28;20029;-65
2021/07/05 04:38:02;;;;;;;5.03;4.18;;;21.00;67.30;;;;;;4958631;28;20023;-65
2021/07/05 04:40:32;;;;;;;4.05;3.65;;;20.90;67.80;;;;;;4958401;28;20038;-65
2021/07/05 04:42:58;;;;;;;4.70;3.65;;;20.90;68.20;;;;;;4975743;28;20019;-65
2021/07/05 04:45:27;;;;;;;3.83;3.45;;;20.80;68.40;;;;;;4975468;28;20038;-65
2021/07/05 04:47:54;;;;;;;3.75;3.45;;;20.70;68.70;;;;;;4975475;28;20026;-65
2021/07/05 04:50:22;;;;;;;10.40;3.60;;;20.70;68.80;;;;;;4958117;28;20023;-65
2021/07/05 04:52:47;;;;;;;4.75;3.50;;;20.60;69.50;;;;;;4975371;28;20025;-64
2021/07/05 04:55:19;;;;;;;3.97;3.58;;;20.60;69.10;;;;;;4975193;28;20392;-67
2021/07/05 04:57:46;;;;;;;4.05;3.53;;;20.60;69.00;;;;;;4975450;28;20094;-67
2021/07/05 05:00:14;;;;;;;6.72;3.67;;;20.60;69.00;;;;;;4974987;28;20370;-67
2021/07/05 05:02:41;;;;;;;3.97;3.60;;;20.50;69.60;;;;;;4975317;28;20102;-65
2021/07/05 05:05:07;;;;;;;4.07;3.40;;;20.50;69.40;;;;;;4974961;28;20038;-66
2021/07/05 05:07:33;;;;;;;3.80;3.42;;;20.60;69.30;;;;;;4975080;28;20109;-66
2021/07/05 05:10:02;;;;;;;4.72;3.33;;;20.80;69.10;;;;;;4957578;28;20031;-66
2021/07/05 05:12:29;;;;;;;3.50;3.20;;;20.90;68.50;;;;;;4975078;28;20041;-66
2021/07/05 05:14:55;;;;;;;6.10;3.40;;;20.70;69.00;;;;;;4957390;28;20034;-66
2021/07/05 05:17:20;;;;;;;5.30;3.88;;;20.90;69.20;;;;;;4975146;28;20095;-66
2021/07/05 05:19:46;;;;;;;5.95;3.65;;;20.90;69.30;;;;;;4974737;28;20174;-65
2021/07/05 05:22:12;;;;;;;4.05;3.50;;;21.00;70.00;;;;;;4957027;28;20038;-65
2021/07/05 05:24:38;;;;;;;3.85;3.45;;;20.90;70.50;;;;;;4956919;28;20166;-65
2021/07/05 05:27:03;;;;;;;4.40;3.72;;;20.80;71.40;;;;;;4974502;28;20027;-65
2021/07/05 05:29:29;;;;;;;5.53;3.65;;;20.60;73.10;;;;;;4974223;28;20023;-65
2021/07/05 05:31:54;;;;;;;4.57;3.40;;;20.60;73.00;;;;;;4974609;28;20126;-66
2021/07/05 05:34:20;;;;;;;4.25;3.72;;;20.50;72.40;;;;;;4974098;28;20031;-64
2021/07/05 05:36:46;;;;;;;6.38;3.47;;;20.30;73.00;;;;;;4974381;28;20035;-65
2021/07/05 05:39:11;;;;;;;4.85;3.88;;;20.30;74.30;;;;;;4974531;28;20023;-65
2021/07/05 05:41:37;;;;;;;4.40;3.90;;;20.40;74.00;;;;;;4975849;28;20476;-65
2021/07/05 05:44:03;;;;;;;5.55;4.05;;;20.40;74.20;;;;;;4977655;28;20031;-65
2021/07/05 05:46:32;;;;;;;3.85;3.45;;;20.30;75.00;;;;;;4981790;28;20591;-65
2021/07/05 05:48:59;;;;;;;6.40;4.25;;;20.30;75.20;;;;;;4984748;28;20117;-65
2021/07/05 05:51:30;;;;;;;5.25;3.63;;;20.30;76.60;;;;;;4981272;28;20050;-65
2021/07/05 05:53:56;;;;;;;5.00;4.50;;;20.20;76.20;;;;;;4973724;28;20030;-65
2021/07/05 05:56:21;;;;;;;4.75;4.00;;;19.90;78.80;;;;;;4973836;28;20070;-65
2021/07/05 05:58:47;;;;;;;5.20;4.05;;;19.80;78.70;;;;;;4956649;28;20401;-65
2021/07/05 06:01:13;;;;;;;6.60;4.30;;;19.70;81.20;;;;;;4973938;28;20022;-65
2021/07/05 06:03:38;;;;;;;4.78;3.97;;;19.60;80.30;;;;;;4973628;28;20034;-66
2021/07/05 06:06:04;;;;;;;4.13;3.72;;;19.60;80.80;;;;;;4973667;28;20030;-65
2021/07/05 06:08:29;;;;;;;5.75;4.35;;;19.60;79.20;;;;;;4973940;28;20035;-66
2021/07/05 06:10:55;;;;;;;4.75;3.60;;;19.60;80.60;;;;;;4973070;28;20027;-66
2021/07/05 06:13:21;;;;;;;5.43;3.90;;;19.60;79.40;;;;;;4973930;28;20508;-66
2021/07/05 06:15:46;;;;;;;4.65;4.10;;;19.60;79.10;;;;;;4956143;28;20025;-66
2021/07/05 06:18:12;;;;;;;7.82;4.07;;;19.70;80.90;;;;;;4973695;28;20495;-65
2021/07/05 06:20:38;;;;;;;3.83;3.53;;;19.80;82.10;;;;;;4973686;28;20464;-66
2021/07/05 06:23:16;;;;;;;8.80;4.07;;;19.80;81.10;;;;;;5019266;23;20046;-65
2021/07/05 06:25:42;;;;;;;5.20;4.10;;;19.90;81.70;;;;;;4995733;28;20029;-64
2021/07/05 06:28:07;;;;;;;3.92;3.63;;;19.90;81.40;;;;;;5013135;28;20026;-64
2021/07/05 06:30:33;;;;;;;5.32;4.00;;;19.90;81.10;;;;;;5011823;28;20467;-65
2021/07/05 06:32:59;;;;;;;3.83;3.53;;;19.80;80.70;;;;;;5012441;28;20018;-64
2021/07/05 06:35:24;;;;;;;3.65;3.35;;;19.80;80.60;;;;;;5009816;28;20105;-64
2021/07/05 06:37:50;;;;;;;6.18;3.90;;;19.90;80.50;;;;;;5013126;28;20017;-65
2021/07/05 06:40:15;;;;;;;4.07;3.53;;;19.90;80.70;;;;;;5012437;28;20022;-65
2021/07/05 06:42:41;;;;;;;6.65;4.28;;;19.80;80.70;;;;;;5013004;28;20026;-64
2021/07/05 06:45:07;;;;;;;5.93;3.60;;;19.80;81.00;;;;;;5013056;28;20426;-66
2021/07/05 06:47:32;;;;;;;5.03;3.63;;;19.90;80.80;;;;;;5013532;28;20026;-64
2021/07/05 06:49:58;;;;;;;4.60;4.20;;;19.70;81.10;;;;;;5014977;28;20026;-65
2021/07/05 06:52:24;;;;;;;6.32;4.15;;;19.60;82.30;;;;;;5014127;28;20034;-66
2021/07/05 06:54:49;;;;;;;7.28;4.63;;;19.40;83.40;;;;;;5012900;28;20089;-65
2021/07/05 06:57:30;;;;;;;6.13;5.03;;;19.30;85.10;;;;;;4997860;28;20113;-65
2021/07/05 07:00:04;;;;;;;5.20;4.70;;;19.20;85.80;;;;;;4997574;28;20021;-65
2021/07/05 07:02:32;;;;;;;6.22;4.80;;;;;;;;;;5014288;28;20088;-66
2021/07/05 07:04:58;;;;;;;6.07;5.10;;;;;;;;;;5014051;28;20037;-65
2021/07/05 07:07:24;;;;;;;5.80;4.55;;;;;;;;;;4996329;28;20030;-64
2021/07/05 07:09:50;;;;;;;6.50;4.85;;;;;;;;;;5013879;28;20391;-64
2021/07/05 07:12:16;;;;;;;4.68;4.13;;;;;;;;;;5013709;28;20097;-65
2021/07/05 07:14:43;;;;;;;4.65;4.22;;;;;;;;;;5013506;28;20052;-65
2021/07/05 07:17:18;;;;;;;6.25;3.85;;;;;;;;;;5013311;28;20050;-65
2021/07/05 07:19:44;;;;;;;4.55;3.65;;;;;;;;;;4995210;28;20121;-65
2021/07/05 07:22:10;;;;;;;4.25;3.20;;;;;;;;;;5010666;28;20018;-64
2021/07/05 07:24:36;;;;;;;3.75;3.30;;;;;;;;;;5010807;28;20038;-64
2021/07/05 07:27:02;;;;;;;4.05;3.05;;;;;;;;;;4994630;28;20033;-64
2021/07/05 07:29:28;;;;;;;4.55;3.22;;;;;;;;;;5013083;28;20033;-64
2021/07/05 07:31:54;;;;;;;3.55;2.58;;;;;;;;;;5013734;28;20152;-64
2021/07/05 07:34:20;;;;;;;3.88;2.30;;;;;;;;;;5012621;28;20022;-64
2021/07/05 07:36:47;;;;;;;2.75;2.47;;;;;;;;;;5012344;28;20088;-64
2021/07/05 07:39:16;;;;;;;2.67;2.08;;;;;;;;;;5012559;28;20101;-64
2021/07/05 07:41:42;;;;;;;4.70;2.45;;;;;;;;;;5012772;28;20022;-64
2021/07/05 07:44:08;;;;;;;3.20;2.33;;;;;;;;;;4987804;28;20034;-64
2021/07/05 07:46:35;;;;;;;3.92;2.38;;;;;;;;;;5012714;28;20034;-64
2021/07/05 07:49:01;;;;;;;4.53;2.60;;;;;;;;;;4978964;28;20034;-67
2021/07/05 07:51:27;;;;;;;6.60;5.97;;;;;;;;;;5009646;28;20097;-66
2021/07/05 07:53:55;;;;;;;57.40;48.20;;;;;;;;;;5012031;28;20022;-66
2021/07/05 07:56:21;;;;;;;42.40;36.78;;;22.50;69.10;;;;;;5010357;28;20057;-65
2021/07/05 07:58:47;;;;;;;67.72;60.40;;;22.90;68.30;;;;;;4999578;28;20030;-66
2021/07/05 08:01:12;;;;;;;3.90;2.60;;;23.60;63.80;;;;;;4994768;28;20137;-66
2021/07/05 08:03:38;;;;;;;11.88;9.73;;;24.40;60.70;;;;;;4998603;28;20396;-66
2021/07/05 08:06:04;;;;;;;6.50;3.15;;;24.10;61.50;;;;;;5003734;28;20037;-65
2021/07/05 08:08:29;;;;;;;4.35;2.28;;;24.20;60.00;;;;;;5012249;28;20058;-66
2021/07/05 08:10:55;;;;;;;11.70;7.90;;;24.30;60.00;;;;;;5004523;28;20531;-66
2021/07/05 08:13:20;;;;;;;4.00;3.22;;;24.50;61.30;;;;;;5007043;28;20054;-66
2021/07/05 08:15:49;;;;;;;7.05;5.45;;;25.20;58.80;;;;;;4997152;28;20033;-65
2021/07/05 08:18:15;;;;;;;3.63;2.22;;;25.60;56.70;;;;;;4990680;28;20024;-65
2021/07/05 08:20:41;;;;;;;8.02;7.20;;;25.70;55.10;;;;;;4997341;28;20399;-66
2021/07/05 08:23:07;;;;;;;9.65;6.45;;;25.60;55.40;;;;;;5002688;28;20031;-66
2021/07/05 08:25:32;;;;;;;3.25;2.53;;;26.10;54.30;;;;;;5005281;28;20400;-66
2021/07/05 08:27:58;;;;;;;7.68;4.60;;;26.30;52.20;;;;;;4995322;28;20027;-66
2021/07/05 08:30:25;;;;;;;3.35;2.97;;;26.50;51.50;;;;;;4990213;28;20019;-67
2021/07/05 08:32:52;;;;;;;2.47;1.42;;;26.40;51.90;;;;;;4998291;28;20018;-67
2021/07/05 08:35:18;;;;;;;3.63;1.75;;;26.10;51.00;;;;;;5003755;28;20038;-67
2021/07/05 08:37:45;;;;;;;2.60;1.90;;;26.20;51.30;;;;;;5009018;28;20053;-65
2021/07/05 08:40:11;;;;;;;1.85;1.50;;;26.00;52.40;;;;;;4998567;28;20026;-66
2021/07/05 08:42:37;;;;;;;2.10;1.25;;;26.00;51.50;;;;;;4993030;28;20022;-66
2021/07/05 08:45:06;;;;;;;3.03;2.78;;;26.40;50.60;;;;;;5003601;28;20030;-66
2021/07/05 08:47:37;;;;;;;3.83;1.95;;;26.90;51.40;;;;;;4988073;28;20036;-65
2021/07/05 08:50:05;;;;;;;3.13;2.60;;;27.40;47.80;;;;;;5014823;28;20032;-68
2021/07/05 08:52:42;;;;;;;483.83;336.90;;;27.80;49.10;;;;;;4999542;28;20033;-67
2021/07/05 08:55:10;;;;;;;26.90;16.17;;;28.50;47.20;;;;;;4988332;28;20123;-65
2021/07/05 08:57:38;;;;;;;2.85;2.00;;;28.60;45.60;;;;;;5002918;28;20024;-66
2021/07/05 09:00:19;;;;;;;3.10;2.00;;;28.50;44.30;;;;;;5014604;28;20030;-66
2021/07/05 09:02:46;;;;;;;1.88;1.55;;;28.70;44.50;;;;;;5000497;28;20034;-67
2021/07/05 09:05:13;;;;;;;1.52;1.40;;;28.80;43.90;;;;;;4981487;28;20041;-67
2021/07/05 09:07:57;;;;;;;1.73;1.55;;;;;;;;;;4982848;28;20033;-66
2021/07/05 09:10:23;;;;;;;1.88;1.52;;;;;;;;;;4999342;28;20022;-67
2021/07/05 09:13:09;;;;;;;1.30;1.17;;;;;;;;;;4998665;28;20027;-67
2021/07/05 09:15:37;;;;;;;1.52;1.30;;;;;;;;;;4999438;28;20026;-67
2021/07/05 09:18:02;;;;;;;1.75;1.30;;;30.30;40.00;;;;;;4984522;28;20512;-67
2021/07/05 09:20:31;;;;;;;2.40;1.65;;;30.50;39.60;;;;;;4998954;28;20101;-66
2021/07/05 09:23:13;;;;;;;2.78;1.20;;;29.90;39.90;;;;;;4999031;28;20142;-67
2021/07/05 09:25:45;;;;;;;2.03;1.60;;;30.20;38.40;;;;;;5000072;28;20542;-67
2021/07/05 09:28:12;;;;;;;2.97;1.15;;;30.30;39.80;;;;;;5001023;28;20014;-67
2021/07/05 09:30:41;;;;;;;1.38;1.27;;;30.80;37.50;;;;;;4999710;28;20014;-67
2021/07/05 09:33:24;;;;;;;2.78;2.00;;;31.10;36.50;;;;;;5000028;28;20026;-68
2021/07/05 09:35:55;;;;;;;2.28;1.55;;;31.70;37.10;;;;;;5010655;28;20041;-68
2021/07/05 09:38:29;;;;;;;1.50;1.40;;;32.30;35.80;;;;;;4996677;28;20028;-68
2021/07/05 09:40:55;;;;;;;1.80;1.65;;;33.00;35.30;;;;;;4989119;28;20046;-67
2021/07/05 09:43:44;;;;;;;4.88;1.73;;;33.10;35.90;;;;;;5008972;28;20076;-68
2021/07/05 09:46:12;;;;;;;2.13;1.35;;;33.00;33.50;;;;;;4995719;28;20022;-68
2021/07/05 09:48:46;;;;;;;3.25;1.60;;;30.90;36.40;;;;;;4987750;28;20018;-68
2021/07/05 09:51:17;;;;;;;2.70;1.67;;;30.40;38.40;;;;;;5010044;28;20050;-68
2021/07/05 09:53:44;;;;;;;1.83;1.63;;;30.10;38.70;;;;;;4990361;28;20088;-68
2021/07/05 09:56:22;;;;;;;1.63;1.40;;;30.20;39.40;;;;;;5002943;28;20022;-67
2021/07/05 09:58:49;;;;;;;1.88;1.40;;;30.00;38.70;;;;;;5005883;28;20109;-67
2021/07/05 10:01:46;;;;;;;1.60;1.50;;;29.80;40.40;;;;;;5010528;28;20037;-67
2021/07/05 10:04:27;;;;;;;3.40;1.52;;;29.10;41.00;;;;;;4982725;28;20396;-66
2021/07/05 10:07:00;;;;;;;2.17;1.60;;;29.20;42.20;;;;;;4998201;28;20041;-66
2021/07/05 10:09:38;;;;;;;2.83;1.88;;;28.60;43.30;;;;;;4980731;28;20069;-66
2021/07/05 10:12:29;;;;;;;2.47;1.73;;;27.80;44.80;;;;;;5003914;28;20553;-66
2021/07/05 10:15:07;;;;;;;3.20;1.70;;;27.40;45.90;;;;;;5005059;28;20109;-67
2021/07/05 10:17:36;;;;;;;1.48;1.38;;;27.20;46.10;;;;;;5003450;28;20380;-66
2021/07/05 10:20:06;;;;;;;3.97;1.77;;;27.00;46.00;;;;;;5003511;28;20105;-66
2021/07/05 10:22:32;;;;;;;4.43;2.03;;;27.00;45.70;;;;;;4989262;28;20121;-67
2021/07/05 10:24:58;;;;;;;2.95;2.30;;;26.60;47.20;;;;;;5006984;28;20527;-66
2021/07/05 10:27:24;;;;;;;2.53;1.90;;;26.50;47.10;;;;;;4994960;28;20060;-66
2021/07/05 10:29:51;;;;;;;2.65;2.05;;;26.90;47.40;;;;;;4995062;28;20029;-66
2021/07/05 10:32:17;;;;;;;4.65;1.90;;;27.00;45.20;;;;;;4996975;28;20033;-67
2021/07/05 10:34:44;;;;;;;2.95;1.77;;;27.10;46.90;;;;;;5006255;28;20038;-66
2021/07/05 10:37:15;;;;;;;2.65;2.00;;;27.40;46.10;;;;;;5009487;28;20395;-66
2021/07/05 10:39:41;;;;;;;2.22;2.00;;;27.60;45.80;;;;;;4989300;28;20510;-66
2021/07/05 10:42:27;;;;;;;1.85;1.60;;;27.10;44.90;;;;;;4991633;28;20030;-66
2021/07/05 10:44:53;;;;;;;2.03;1.92;;;26.60;45.40;;;;;;5011372;28;20037;-66
2021/07/05 10:47:40;;;;;;;1.77;1.50;;;26.70;47.80;;;;;;5010469;28;20030;-66
2021/07/05 10:50:06;;;;;;;1.75;1.65;;;27.40;44.60;;;;;;4976368;28;20627;-66
2021/07/05 10:52:48;;;;;;;3.95;2.00;;;27.90;45.50;;;;;;5009399;28;20033;-67
2021/07/05 10:55:59;;;;;;;2.90;1.50;;;27.80;44.00;;;;;;5009948;28;20579;-66
2021/07/05 10:58:33;;;;;;;3.30;1.60;;;27.70;44.10;;;;;;4972714;28;20042;-66
2021/07/05 11:01:02;;;;;;;3.35;1.55;;;28.10;43.80;;;;;;5011752;28;20018;-67
2021/07/05 11:03:40;;;;;;;2.53;1.83;;;28.50;42.20;;;;;;5000868;28;20018;-66
2021/07/05 11:06:29;;;;;;;2.78;1.58;;;28.90;40.60;;;;;;5008529;28;20105;-67
2021/07/05 11:08:55;;;;;;;2.00;1.30;;;28.90;39.80;;;;;;4971535;28;20029;-67
2021/07/05 11:11:25;;;;;;;1.55;1.45;;;28.90;39.70;;;;;;5011341;28;20314;-67
2021/07/05 11:14:13;;;;;;;1.60;1.50;;;28.90;39.30;;;;;;4994563;28;20080;-67
2021/07/05 11:17:03;;;;;;;2.17;1.40;;;28.60;39.60;;;;;;4978840;28;20476;-66
2021/07/05 11:19:40;;;;;;;1.27;1.10;;;28.70;41.20;;;;;;4983024;28;20023;-67
2021/07/05 11:22:24;;;;;;;1.85;1.30;;;28.70;40.40;;;;;;5008263;28;20022;-67
2021/07/05 11:25:07;;;;;;;1.67;1.20;;;29.00;39.40;;;;;;4998098;28;20037;-67
2021/07/05 11:27:49;;;;;;;2.70;1.33;;;29.20;40.40;;;;;;4999803;28;20026;-66
2021/07/05 11:30:20;;;;;;;;;;;29.00;40.90;;;;;;4991189;28;20022;-67
2021/07/05 11:32:57;;;;;;;1.38;1.27;;;28.90;39.30;;;;;;4997465;28;19929;-66
2021/07/05 11:35:34;;;;;;;2.63;1.35;;;28.80;39.50;;;;;;5000973;28;20031;-66
2021/07/05 11:38:06;;;;;;;1.20;1.10;;;29.00;39.50;;;;;;5007389;28;20030;-65
2021/07/05 11:40:39;;;;;;;1.30;1.20;;;29.00;39.70;;;;;;5003905;28;20032;-66
2021/07/05 11:43:05;;;;;;;1.15;0.90;;;29.20;37.80;;;;;;5011609;28;20036;-66
2021/07/05 11:45:39;;;;;;;1.25;1.13;;;29.40;38.50;;;;;;5009871;28;20105;-66
2021/07/05 11:48:05;;;;;;;1.67;1.23;;;29.50;37.10;;;;;;4994257;28;20113;-66
2021/07/05 11:50:33;;;;;;;2.40;1.30;;;29.50;37.40;;;;;;4993926;28;20850;-65
2021/07/05 11:53:03;;;;;;;1.67;1.40;;;29.60;37.60;;;;;;5009417;28;20105;-66
2021/07/05 11:55:32;;;;;;;1.95;1.30;;;29.90;37.90;;;;;;5010568;28;20121;-66
2021/07/05 11:57:59;;;;;;;2.28;1.30;;;29.90;37.20;;;;;;4995219;28;20037;-66
2021/07/05 12:00:28;;;;;;;2.75;1.45;;;29.60;38.20;;;;;;5007329;28;20476;-66
2021/07/05 12:03:20;;;;;;;1.35;1.25;;;29.90;37.50;;;;;;4979805;28;20022;-67
2021/07/05 12:06:00;;;;;;;0.95;0.85;;;29.70;37.80;;;;;;4993081;28;20042;-67
2021/07/05 12:08:25;;;;;;;4.00;1.15;;;29.70;38.40;;;;;;5007932;28;20030;-67
2021/07/05 12:10:57;;;;;;;1.63;1.10;;;29.80;37.70;;;;;;4984240;28;20372;-66
2021/07/05 12:13:27;;;;;;;1.33;1.00;;;29.80;37.70;;;;;;5004719;28;20093;-67
2021/07/05 12:15:54;;;;;;;0.90;0.70;;;29.80;37.60;;;;;;5009695;28;20026;-67
2021/07/05 12:18:19;;;;;;;1.02;0.85;;;29.70;36.60;;;;;;4998868;28;20049;-67
2021/07/05 12:20:58;;;;;;;1.33;0.73;;;29.70;37.20;;;;;;5009810;28;20054;-67
2021/07/05 12:23:41;;;;;;;8.35;1.00;;;29.70;35.90;;;;;;5019166;23;20052;-70
2021/07/05 12:26:23;;;;;;;1.20;0.77;;;29.50;37.40;;;;;;4976989;28;20073;-70
2021/07/05 12:29:20;;;;;;;2.65;1.17;;;29.40;38.70;;;;;;4977969;28;20392;-70
2021/07/05 12:32:04;;;;;;;2.30;0.93;;;29.20;38.60;;;;;;4995352;28;20018;-70
2021/07/05 12:34:57;;;;;;;1.15;0.80;;;29.30;38.80;;;;;;4994928;28;20165;-70
2021/07/05 12:37:25;;;;;;;0.80;0.68;;;29.60;36.50;;;;;;4965774;28;20043;-70
2021/07/05 12:39:53;;;;;;;1.60;0.98;;;29.50;38.20;;;;;;4987889;28;20117;-70
2021/07/05 12:42:39;;;;;;;1.25;1.15;;;29.60;39.00;;;;;;4993577;28;20022;-69
2021/07/05 12:45:11;;;;;;;1.83;1.20;;;29.60;38.40;;;;;;4994886;28;20392;-69
2021/07/05 12:47:55;;;;;;;1.02;0.93;;;29.50;38.50;;;;;;4995075;28;20105;-69
2021/07/05 12:50:45;;;;;;;1.13;1.02;;;29.40;37.70;;;;;;4994480;28;20036;-70
2021/07/05 12:53:14;;;;;;;1.85;0.80;;;29.00;39.60;;;;;;4971790;28;20495;-70
2021/07/05 12:55:51;;;;;;;1.38;0.80;;;28.90;38.70;;;;;;5001401;28;20286;-70
2021/07/05 12:58:29;;;;;;;2.67;0.95;;;28.60;39.30;;;;;;4976705;28;20023;-69
2021/07/05 13:00:54;;;;;;;2.25;0.60;;;28.50;39.50;;;;;;4994683;28;20617;-70
2021/07/05 13:03:20;;;;;;;1.23;0.90;;;28.00;40.00;;;;;;4994587;28;20106;-70
2021/07/05 13:05:45;;;;;;;1.30;0.80;;;27.60;41.20;;;;;;4994552;28;20030;-69